createdAt,value
2023-03-04T00:02:13.066Z,20.30
2023-03-04T00:04:39.791Z,20.30
2023-03-04T00:07:06.403Z,20.30
2023-03-04T00:09:33.033Z,20.30
2023-03-04T00:11:59.632Z,20.30
2023-03-04T00:14:27.396Z,20.30
2023-03-04T00:16:55.446Z,20.30
2023-03-04T00:19:21.981Z,20.40
2023-03-04T00:21:48.583Z,20.40
2023-03-04T00:24:15.147Z,20.30
2023-03-04T00:26:41.729Z,20.40
2023-03-04T00:29:08.361Z,20.40
2023-03-04T00:31:34.979Z,20.40
2023-03-04T00:34:01.531Z,20.40
2023-03-04T00:36:28.135Z,20.30
2023-03-04T00:38:54.724Z,20.40
2023-03-04T00:41:21.403Z,20.40
2023-03-04T00:43:48.176Z,20.40
2023-03-04T00:46:14.829Z,20.40
2023-03-04T00:48:41.419Z,20.50
2023-03-04T00:51:08.009Z,20.40
2023-03-04T00:53:34.678Z,20.40
2023-03-04T00:56:01.290Z,20.50
2023-03-04T00:58:27.958Z,20.50
2023-03-04T01:00:54.719Z,20.50
2023-03-04T01:03:21.395Z,20.50
2023-03-04T01:05:47.937Z,20.50
2023-03-04T01:08:14.526Z,20.50
2023-03-04T01:10:41.148Z,20.50
2023-03-04T01:13:07.800Z,20.50
2023-03-04T01:15:34.379Z,20.50
2023-03-04T01:18:01.052Z,20.70
2023-03-04T01:20:27.600Z,20.60
2023-03-04T01:22:54.213Z,20.50
2023-03-04T01:25:20.824Z,20.60
2023-03-04T01:27:47.409Z,20.60
2023-03-04T01:30:14.224Z,20.60
2023-03-04T01:32:40.912Z,20.60
2023-03-04T01:35:07.887Z,20.60
2023-03-04T01:37:34.848Z,20.60
2023-03-04T01:40:01.598Z,20.60
2023-03-04T01:42:32.223Z,20.60
2023-03-04T01:44:58.967Z,20.60
2023-03-04T01:47:29.586Z,20.60
2023-03-04T01:49:57.738Z,20.60
2023-03-04T01:52:26.926Z,20.60
2023-03-04T01:54:53.774Z,20.70
2023-03-04T01:57:23.439Z,20.60
2023-03-04T02:00:21.690Z,20.70
2023-03-04T02:02:52.799Z,20.60
2023-03-04T02:05:20.491Z,20.70
2023-03-04T02:07:47.115Z,20.70
2023-03-04T02:10:14.050Z,20.60
2023-03-04T02:12:40.947Z,20.70
2023-03-04T02:15:08.524Z,20.60
2023-03-04T02:17:35.105Z,20.70
2023-03-04T02:20:21.883Z,20.70
2023-03-04T02:23:19.680Z,20.70
2023-03-04T02:26:14.197Z,20.70
2023-03-04T02:28:41.331Z,20.70
2023-03-04T02:31:24.597Z,20.70
2023-03-04T02:33:52.799Z,20.70
2023-03-04T02:36:19.602Z,20.70
2023-03-04T02:38:46.447Z,20.70
2023-03-04T02:41:16.523Z,20.70
2023-03-04T02:43:45.616Z,20.70
2023-03-04T02:46:13.532Z,20.70
2023-03-04T02:48:40.170Z,20.70
2023-03-04T02:51:06.798Z,20.80
2023-03-04T02:53:33.526Z,20.70
2023-03-04T02:56:00.191Z,20.70
2023-03-04T02:58:26.785Z,20.80
2023-03-04T03:00:53.416Z,20.80
2023-03-04T03:03:20.075Z,20.80
2023-03-04T03:05:46.766Z,20.80
2023-03-04T03:08:13.344Z,20.80
2023-03-04T03:10:40.023Z,20.80
2023-03-04T03:13:06.626Z,20.80
2023-03-04T03:15:34.643Z,20.80
2023-03-04T03:18:01.290Z,20.80
2023-03-04T03:20:27.952Z,20.80
2023-03-04T03:22:54.574Z,20.80
2023-03-04T03:25:21.173Z,20.80
2023-03-04T03:27:47.879Z,20.80
2023-03-04T03:30:15.797Z,20.90
2023-03-04T03:32:42.496Z,20.90
2023-03-04T03:35:09.426Z,20.80
2023-03-04T03:37:36.149Z,20.90
2023-03-04T03:40:03.651Z,20.90
2023-03-04T03:42:30.234Z,20.90
2023-03-04T03:44:56.909Z,20.90
2023-03-04T03:47:24.493Z,20.90
2023-03-04T03:49:51.125Z,20.90
2023-03-04T03:52:17.731Z,20.90
2023-03-04T03:54:44.390Z,20.90
2023-03-04T03:57:11.035Z,20.90
2023-03-04T03:59:37.693Z,21.00
2023-03-04T04:02:04.355Z,20.90
2023-03-04T04:04:30.936Z,20.90
2023-03-04T04:06:57.516Z,20.90
2023-03-04T04:09:24.148Z,20.90
2023-03-04T04:11:50.753Z,20.90
2023-03-04T04:14:17.339Z,21.00
2023-03-04T04:16:44.144Z,20.90
2023-03-04T04:19:17.953Z,20.90
2023-03-04T04:21:44.716Z,20.90
2023-03-04T04:24:11.353Z,20.90
2023-03-04T04:26:37.999Z,20.90
2023-03-04T04:29:04.676Z,20.90
2023-03-04T04:31:31.286Z,20.90
2023-03-04T04:33:57.960Z,21.00
2023-03-04T04:36:24.499Z,20.90
2023-03-04T04:38:51.145Z,21.00
2023-03-04T04:41:28.325Z,21.00
2023-03-04T04:43:55.176Z,21.00
2023-03-04T04:46:21.904Z,21.00
2023-03-04T04:48:48.577Z,21.00
2023-03-04T04:51:15.266Z,21.00
2023-03-04T04:53:41.977Z,21.00
2023-03-04T04:56:14.515Z,21.00
2023-03-04T04:58:42.537Z,21.00
2023-03-04T05:01:09.939Z,21.00
2023-03-04T05:03:38.109Z,21.00
2023-03-04T05:06:06.879Z,21.00
2023-03-04T05:08:33.759Z,21.00
2023-03-04T05:11:00.511Z,21.00
2023-03-04T05:13:27.310Z,21.10
2023-03-04T05:15:55.881Z,21.00
2023-03-04T05:18:24.532Z,21.10
2023-03-04T05:20:52.504Z,21.10
2023-03-04T05:23:19.610Z,21.10
2023-03-04T05:25:46.921Z,21.10
2023-03-04T05:28:14.124Z,21.10
2023-03-04T05:30:42.027Z,21.10
2023-03-04T05:33:09.706Z,21.10
2023-03-04T05:35:37.402Z,21.10
2023-03-04T05:38:05.088Z,21.10
2023-03-04T05:40:31.705Z,21.10
2023-03-04T05:42:58.456Z,21.10
2023-03-04T05:45:26.002Z,21.10
2023-03-04T05:47:53.786Z,21.10
2023-03-04T05:50:21.155Z,21.10
2023-03-04T05:52:47.985Z,21.10
2023-03-04T05:55:15.095Z,21.10
2023-03-04T05:57:41.752Z,21.10
2023-03-04T06:00:09.367Z,21.20
2023-03-04T06:02:36.736Z,21.20
2023-03-04T06:05:04.328Z,21.20
2023-03-04T06:07:31.374Z,21.20
2023-03-04T06:09:58.173Z,21.20
2023-03-04T06:12:24.825Z,21.30
2023-03-04T06:14:51.434Z,21.10
2023-03-04T06:17:18.072Z,21.20
2023-03-04T06:19:44.740Z,21.20
2023-03-04T06:22:11.542Z,21.20
2023-03-04T06:24:38.188Z,21.20
2023-03-04T06:27:05.052Z,21.20
2023-03-04T06:29:32.226Z,21.20
2023-03-04T06:31:59.301Z,21.20
2023-03-04T06:34:25.969Z,21.20
2023-03-04T06:36:52.578Z,21.20
2023-03-04T06:39:19.258Z,21.20
2023-03-04T06:41:46.058Z,21.20
2023-03-04T06:44:12.794Z,21.20
2023-03-04T06:46:39.401Z,21.20
2023-03-04T06:49:06.026Z,21.20
2023-03-04T06:51:32.699Z,21.20
2023-03-04T06:53:59.385Z,21.20
2023-03-04T06:56:25.967Z,21.20
2023-03-04T06:58:52.714Z,21.30
2023-03-04T07:01:27.974Z,21.40
2023-03-04T07:03:55.714Z,21.40
2023-03-04T07:06:25.841Z,21.40
2023-03-04T07:08:53.276Z,21.20
2023-03-04T07:11:21.890Z,21.10
2023-03-04T07:13:49.087Z,21.10
2023-03-04T07:16:19.400Z,21.10
2023-03-04T07:18:46.637Z,21.10
2023-03-04T07:21:15.410Z,21.20
2023-03-04T07:23:42.055Z,21.10
2023-03-04T07:26:09.194Z,21.20
2023-03-04T07:28:36.027Z,21.20
2023-03-04T07:31:24.433Z,21.20
2023-03-04T07:33:51.260Z,21.20
2023-03-04T07:36:19.673Z,21.30
2023-03-04T07:38:47.749Z,21.20
2023-03-04T07:41:15.251Z,21.40
2023-03-04T07:43:41.901Z,21.20
2023-03-04T07:46:09.670Z,21.20
2023-03-04T07:48:37.208Z,21.20
2023-03-04T07:51:15.762Z,21.20
2023-03-04T07:53:45.512Z,21.20
2023-03-04T07:56:14.669Z,19.70
2023-03-04T07:58:41.326Z,17.50
2023-03-04T08:01:13.753Z,16.10
2023-03-04T08:03:40.764Z,16.40
2023-03-04T08:06:09.949Z,18.00
2023-03-04T08:08:37.471Z,19.00
2023-03-04T08:11:06.319Z,19.50
2023-03-04T08:13:33.515Z,19.90
2023-03-04T08:16:00.303Z,20.10
2023-03-04T08:18:27.209Z,20.20
2023-03-04T08:20:54.044Z,20.40
2023-03-04T08:23:20.821Z,20.40
2023-03-04T08:25:48.357Z,20.50
2023-03-04T08:28:16.232Z,20.60
2023-03-04T08:30:43.003Z,20.60
2023-03-04T08:33:10.221Z,20.60
2023-03-04T08:35:38.967Z,20.70
2023-03-04T08:38:06.269Z,20.70
2023-03-04T08:40:33.351Z,20.80
2023-03-04T08:43:00.372Z,20.70
2023-03-04T08:45:27.071Z,20.80
2023-03-04T08:47:53.716Z,20.90
2023-03-04T08:50:22.547Z,20.90
2023-03-04T08:52:49.399Z,20.90
2023-03-04T08:55:16.304Z,20.90
2023-03-04T08:57:43.013Z,20.90
2023-03-04T09:00:10.458Z,20.90
2023-03-04T09:02:37.068Z,20.90
2023-03-04T09:05:04.242Z,21.00
2023-03-04T09:07:30.880Z,21.00
2023-03-04T09:09:57.507Z,21.00
2023-03-04T09:12:24.567Z,21.00
2023-03-04T09:15:04.639Z,21.00
2023-03-04T09:17:36.736Z,21.00
2023-03-04T09:20:04.735Z,21.00
2023-03-04T09:22:31.717Z,21.00
2023-03-04T09:24:58.291Z,21.00
2023-03-04T09:27:25.030Z,21.10
2023-03-04T09:29:51.649Z,21.10
2023-03-04T09:32:18.386Z,19.70
2023-03-04T09:34:45.046Z,17.90
2023-03-04T09:37:11.732Z,17.60
2023-03-04T09:39:38.327Z,18.70
2023-03-04T09:42:07.539Z,19.50
2023-03-04T09:44:40.823Z,19.90
2023-03-04T09:47:13.906Z,20.20
2023-03-04T09:49:44.378Z,20.40
2023-03-04T09:52:13.650Z,20.40
2023-03-04T09:55:17.720Z,20.50
2023-03-04T09:58:06.716Z,20.60
2023-03-04T10:00:43.026Z,20.70
2023-03-04T10:03:15.725Z,20.70
2023-03-04T10:06:16.881Z,20.70
2023-03-04T10:08:46.266Z,20.90
2023-03-04T10:11:23.442Z,20.80
2023-03-04T10:14:05.090Z,20.80
2023-03-04T10:16:40.586Z,20.90
2023-03-04T10:19:31.590Z,20.80
2023-03-04T10:21:58.694Z,20.80
2023-03-04T10:24:28.864Z,20.90
2023-03-04T10:27:05.252Z,20.00
2023-03-04T10:29:33.438Z,18.10
2023-03-04T10:32:00.098Z,17.00
2023-03-04T10:34:26.866Z,16.50
2023-03-04T10:37:01.764Z,16.10
2023-03-04T10:39:34.564Z,15.90
2023-03-04T10:42:07.515Z,17.20
2023-03-04T10:44:35.355Z,18.10
2023-03-04T10:47:02.168Z,18.70
2023-03-04T10:49:29.819Z,19.10
2023-03-04T10:52:22.764Z,19.40
2023-03-04T10:54:53.857Z,19.60
2023-03-04T10:57:41.744Z,19.70
2023-03-04T11:00:17.558Z,19.80
2023-03-04T11:02:46.071Z,20.00
2023-03-04T11:05:18.400Z,20.00
2023-03-04T11:07:55.526Z,20.00
2023-03-04T11:10:24.177Z,20.10
2023-03-04T11:13:00.297Z,20.10
2023-03-04T11:15:31.155Z,20.20
2023-03-04T11:18:02.555Z,20.20
2023-03-04T11:20:35.643Z,20.20
2023-03-04T11:23:14.508Z,20.30
2023-03-04T11:25:46.507Z,20.30
2023-03-04T11:28:47.089Z,20.30
2023-03-04T11:31:18.504Z,20.40
2023-03-04T11:33:55.530Z,20.40
2023-03-04T11:36:43.867Z,20.40
2023-03-04T11:40:15.281Z,20.40
2023-03-04T11:42:51.123Z,20.40
2023-03-04T11:45:29.224Z,20.40
2023-03-04T11:48:17.948Z,20.50
2023-03-04T11:50:57.914Z,20.50
2023-03-04T11:53:36.369Z,20.50
2023-03-04T11:56:35.424Z,20.50
2023-03-04T11:59:23.386Z,20.50
2023-03-04T12:02:11.032Z,20.60
2023-03-04T12:04:52.795Z,20.50
2023-03-04T12:07:42.440Z,20.60
2023-03-04T12:10:27.691Z,20.60
2023-03-04T12:13:42.495Z,20.60
2023-03-04T12:16:30.251Z,20.60
2023-03-04T12:19:36.597Z,20.60
2023-03-04T12:22:30.386Z,20.60
2023-03-04T12:25:09.394Z,20.70
2023-03-04T12:27:55.217Z,20.60
2023-03-04T12:30:33.780Z,20.70
2023-03-04T12:33:23.695Z,20.60
2023-03-04T12:36:01.543Z,20.60
2023-03-04T12:38:50.750Z,20.60
2023-03-04T12:41:23.347Z,20.60
2023-03-04T12:43:59.849Z,20.70
2023-03-04T12:46:56.692Z,20.60
2023-03-04T12:50:01.205Z,20.70
2023-03-04T12:52:49.612Z,20.70
2023-03-04T12:55:20.172Z,20.60
2023-03-04T12:57:46.856Z,20.60
2023-03-04T13:00:32.271Z,20.60
2023-03-04T13:03:11.043Z,20.60
2023-03-04T13:05:40.776Z,20.50
2023-03-04T13:08:31.555Z,20.60
2023-03-04T13:11:22.614Z,20.60
2023-03-04T13:14:21.647Z,20.50
2023-03-04T13:16:54.460Z,20.60
2023-03-04T13:19:47.047Z,20.60
2023-03-04T13:22:35.660Z,20.60
2023-03-04T13:25:39.117Z,20.60
2023-03-04T13:28:19.182Z,20.60
2023-03-04T13:30:55.804Z,20.60
2023-03-04T13:33:22.573Z,20.60
2023-03-04T13:36:02.092Z,20.60
2023-03-04T13:38:30.767Z,20.60
2023-03-04T13:41:18.997Z,20.60
2023-03-04T13:43:55.430Z,20.60
2023-03-04T13:46:26.760Z,20.60
2023-03-04T13:48:56.113Z,20.60
2023-03-04T13:51:41.508Z,20.60
2023-03-04T13:54:16.050Z,20.60
2023-03-04T13:56:47.620Z,20.60
2023-03-04T13:59:22.202Z,20.60
2023-03-04T14:01:55.495Z,20.60
2023-03-04T14:04:42.739Z,20.60
2023-03-04T14:07:22.449Z,20.70
2023-03-04T14:10:07.568Z,20.60
2023-03-04T14:12:37.212Z,20.60
2023-03-04T14:15:16.313Z,20.60
2023-03-04T14:17:49.476Z,20.60
2023-03-04T14:20:29.528Z,20.60
2023-03-04T14:22:57.712Z,20.60
2023-03-04T14:25:30.069Z,20.70
2023-03-04T14:28:06.735Z,20.60
2023-03-04T14:30:42.755Z,20.60
2023-03-04T14:33:17.628Z,20.60
2023-03-04T14:35:54.214Z,20.70
2023-03-04T14:38:31.865Z,20.60
2023-03-04T14:41:15.611Z,20.60
2023-03-04T14:43:53.642Z,20.60
2023-03-04T14:46:22.305Z,20.60
2023-03-04T14:48:53.586Z,20.50
2023-03-04T14:51:47.110Z,20.50
2023-03-04T14:54:41.235Z,20.60
2023-03-04T14:57:29.857Z,20.60
2023-03-04T14:59:56.611Z,20.60
2023-03-04T15:02:39.561Z,20.50
2023-03-04T15:05:17.760Z,20.60
2023-03-04T15:07:51.183Z,20.50
2023-03-04T15:10:25.625Z,20.50
2023-03-04T15:13:00.922Z,20.50
2023-03-04T15:15:43.974Z,20.50
2023-03-04T15:18:27.210Z,20.50
2023-03-04T15:20:57.890Z,20.50
2023-03-04T15:23:26.201Z,20.50
2023-03-04T15:25:54.444Z,20.50
2023-03-04T15:28:23.069Z,18.80
2023-03-04T15:30:50.196Z,16.80
2023-03-04T15:33:19.300Z,17.00
2023-03-04T15:35:56.245Z,18.20
2023-03-04T15:38:23.547Z,18.90
2023-03-04T15:40:52.613Z,19.40
2023-03-04T15:43:22.959Z,19.60
2023-03-04T15:45:50.838Z,19.70
2023-03-04T15:48:18.854Z,19.90
2023-03-04T15:51:02.720Z,19.90
2023-03-04T15:53:35.608Z,20.00
2023-03-04T15:56:03.948Z,19.90
2023-03-04T15:58:34.839Z,20.10
2023-03-04T16:01:01.988Z,20.10
2023-03-04T16:03:28.878Z,20.10
2023-03-04T16:05:56.560Z,20.20
2023-03-04T16:08:25.133Z,20.10
2023-03-04T16:10:53.672Z,20.10
2023-03-04T16:13:22.784Z,20.20
2023-03-04T16:15:49.663Z,20.40
2023-03-04T16:18:17.014Z,20.30
2023-03-04T16:20:47.287Z,20.30
2023-03-04T16:23:18.658Z,20.40
2023-03-04T16:25:47.058Z,20.40
2023-03-04T16:28:13.991Z,20.30
2023-03-04T16:30:41.806Z,20.30
2023-03-04T16:33:08.947Z,20.30
2023-03-04T16:35:37.691Z,19.80
2023-03-04T16:38:07.255Z,17.60
2023-03-04T16:40:33.877Z,17.70
2023-03-04T16:43:00.651Z,18.00
2023-03-04T16:45:32.673Z,18.70
2023-03-04T16:47:59.343Z,19.00
2023-03-04T16:50:29.051Z,19.30
2023-03-04T16:52:56.328Z,19.50
2023-03-04T16:55:28.762Z,19.60
2023-03-04T16:57:57.638Z,19.70
2023-03-04T17:00:27.280Z,19.90
2023-03-04T17:03:04.011Z,19.90
2023-03-04T17:05:32.935Z,19.90
2023-03-04T17:07:59.580Z,19.90
2023-03-04T17:10:26.317Z,19.90
2023-03-04T17:12:53.032Z,20.10
2023-03-04T17:15:19.992Z,19.90
2023-03-04T17:17:47.066Z,19.80
2023-03-04T17:20:16.382Z,20.10
2023-03-04T17:22:44.082Z,20.20
2023-03-04T17:25:12.483Z,19.90
2023-03-04T17:27:39.227Z,20.00
2023-03-04T17:30:08.963Z,20.00
2023-03-04T17:32:39.060Z,20.00
2023-03-04T17:35:08.000Z,19.90
2023-03-04T17:37:35.436Z,20.10
2023-03-04T17:40:07.016Z,20.10
2023-03-04T17:42:33.701Z,20.10
2023-03-04T17:45:00.524Z,20.10
2023-03-04T17:47:27.169Z,20.20
2023-03-04T17:49:53.819Z,20.20
2023-03-04T17:52:21.406Z,20.10
2023-03-04T17:54:48.312Z,20.30
2023-03-04T17:57:15.008Z,20.20
2023-03-04T17:59:41.702Z,20.20
2023-03-04T18:02:14.211Z,20.20
2023-03-04T18:04:40.879Z,20.30
2023-03-04T18:07:07.564Z,20.40
2023-03-04T18:09:34.527Z,20.40
2023-03-04T18:12:01.415Z,20.20
2023-03-04T18:14:28.101Z,20.30
2023-03-04T18:16:54.748Z,20.20
2023-03-04T18:19:21.492Z,20.30
2023-03-04T18:21:48.319Z,20.00
2023-03-04T18:24:14.938Z,20.30
2023-03-04T18:26:41.698Z,20.60
2023-03-04T18:29:08.340Z,20.30
2023-03-04T18:31:36.832Z,20.90
2023-03-04T18:34:04.706Z,20.20
2023-03-04T18:36:31.701Z,20.30
2023-03-04T18:38:59.518Z,20.30
2023-03-04T18:41:27.717Z,20.30
2023-03-04T18:43:54.652Z,20.40
2023-03-04T18:46:29.357Z,20.80
2023-03-04T18:49:01.772Z,20.40
2023-03-04T18:51:28.668Z,20.60
2023-03-04T18:53:55.315Z,20.50
2023-03-04T18:56:31.543Z,20.40
2023-03-04T18:58:59.277Z,20.60
2023-03-04T19:01:26.802Z,20.50
2023-03-04T19:03:55.541Z,20.40
2023-03-04T19:06:24.819Z,20.40
2023-03-04T19:08:55.178Z,20.40
2023-03-04T19:11:24.702Z,20.60
2023-03-04T19:13:51.836Z,20.50
2023-03-04T19:16:18.563Z,20.30
2023-03-04T19:18:45.286Z,20.40
2023-03-04T19:21:12.041Z,20.30
2023-03-04T19:23:39.940Z,20.40
2023-03-04T19:26:08.239Z,20.70
2023-03-04T19:28:35.897Z,20.40
2023-03-04T19:31:07.262Z,20.40
2023-03-04T19:33:37.556Z,20.40
2023-03-04T19:36:06.037Z,21.10
2023-03-04T19:38:33.756Z,20.40
2023-03-04T19:41:07.311Z,20.40
2023-03-04T19:43:36.825Z,20.30
2023-03-04T19:46:03.579Z,20.40
2023-03-04T19:48:30.286Z,20.40
2023-03-04T19:50:56.935Z,20.50
2023-03-04T19:53:23.580Z,20.50
2023-03-04T19:55:50.473Z,20.70
2023-03-04T19:58:17.722Z,20.70
2023-03-04T20:00:45.459Z,20.40
2023-03-04T20:03:13.319Z,20.70
2023-03-04T20:05:40.042Z,20.50
2023-03-04T20:08:07.010Z,20.30
2023-03-04T20:10:37.000Z,20.40
2023-03-04T20:13:05.883Z,20.50
2023-03-04T20:15:34.472Z,20.50
2023-03-04T20:18:02.133Z,20.50
2023-03-04T20:20:29.269Z,20.50
2023-03-04T20:22:56.530Z,20.50
2023-03-04T20:25:24.610Z,20.50
2023-03-04T20:27:51.379Z,20.50
2023-03-04T20:30:18.401Z,20.50
2023-03-04T20:32:45.379Z,20.50
2023-03-04T20:35:15.013Z,20.40
2023-03-04T20:37:42.278Z,20.50
2023-03-04T20:40:12.749Z,20.50
2023-03-04T20:42:39.553Z,20.50
2023-03-04T20:45:06.979Z,20.50
2023-03-04T20:47:33.694Z,20.50
2023-03-04T20:50:00.402Z,20.50
2023-03-04T20:52:26.997Z,20.50
2023-03-04T20:54:53.791Z,20.50
2023-03-04T20:57:20.555Z,20.50
2023-03-04T20:59:47.160Z,20.50
2023-03-04T21:02:15.844Z,20.50
2023-03-04T21:04:43.852Z,20.60
2023-03-04T21:07:10.535Z,20.60
2023-03-04T21:09:37.204Z,20.50
2023-03-04T21:12:04.140Z,20.50
2023-03-04T21:14:32.361Z,20.50
2023-03-04T21:17:01.731Z,20.50
2023-03-04T21:19:34.209Z,20.70
2023-03-04T21:22:02.159Z,20.50
2023-03-04T21:24:31.729Z,20.50
2023-03-04T21:26:58.972Z,20.50
2023-03-04T21:29:28.093Z,20.60
2023-03-04T21:32:16.759Z,20.50
2023-03-04T21:34:51.691Z,20.50
2023-03-04T21:37:22.708Z,20.50
2023-03-04T21:39:49.364Z,20.50
2023-03-04T21:42:16.099Z,20.50
2023-03-04T21:44:49.568Z,20.50
2023-03-04T21:47:17.540Z,20.50
2023-03-04T21:49:44.296Z,20.50
2023-03-04T21:52:11.003Z,20.50
2023-03-04T21:54:37.688Z,20.50
2023-03-04T21:57:04.352Z,20.50
2023-03-04T21:59:31.094Z,20.50
2023-03-04T22:01:57.795Z,20.50
2023-03-04T22:04:24.485Z,20.50
2023-03-04T22:06:52.239Z,20.50
2023-03-04T22:09:18.855Z,20.50
2023-03-04T22:11:45.539Z,20.50
2023-03-04T22:14:12.231Z,20.50
2023-03-04T22:16:54.085Z,20.50
2023-03-04T22:19:23.246Z,20.50
2023-03-04T22:21:51.544Z,20.50
2023-03-04T22:24:18.682Z,20.50
2023-03-04T22:26:45.300Z,20.50
2023-03-04T22:29:12.043Z,20.50
2023-03-04T22:31:39.061Z,20.50
2023-03-04T22:34:11.925Z,20.50
2023-03-04T22:36:41.994Z,20.50
2023-03-04T22:39:10.276Z,20.50
2023-03-04T22:41:37.351Z,20.50
2023-03-04T22:44:06.138Z,20.50
2023-03-04T22:46:34.596Z,20.50
2023-03-04T22:49:08.626Z,20.50
2023-03-04T22:51:35.695Z,20.50
2023-03-04T22:54:02.439Z,20.50
2023-03-04T22:56:29.207Z,20.50
2023-03-04T22:58:55.884Z,20.50
2023-03-04T23:01:22.942Z,20.50
2023-03-04T23:03:50.636Z,20.50
2023-03-04T23:06:18.724Z,20.50
2023-03-04T23:08:48.050Z,20.40
2023-03-04T23:11:20.022Z,20.40
2023-03-04T23:13:50.942Z,20.30
2023-03-04T23:16:19.353Z,20.40
2023-03-04T23:18:47.295Z,20.30
2023-03-04T23:21:17.903Z,20.40
2023-03-04T23:23:45.087Z,20.40
2023-03-04T23:26:21.592Z,20.40
2023-03-04T23:28:49.165Z,20.40
2023-03-04T23:31:19.444Z,20.30
2023-03-04T23:33:48.197Z,20.30
2023-03-04T23:36:18.388Z,20.30
2023-03-04T23:38:47.612Z,20.40
2023-03-04T23:41:18.050Z,20.30
2023-03-04T23:43:45.097Z,20.40
2023-03-04T23:46:12.522Z,20.40
2023-03-04T23:48:41.096Z,20.30
2023-03-04T23:51:09.462Z,20.40
2023-03-04T23:53:38.862Z,20.30
2023-03-04T23:56:14.587Z,20.30
2023-03-04T23:58:42.780Z,20.30
